Pagina principale
METAR-TAF:

METAR-TAF

Aeroporti :

Aeroporto di Brindisi-Casale

Brindisi, Italia

latitudine: 40-39N, longitudine: 017-57E, altezza: 15 m

Osservazione

Il bollettino è stato emesso 35 minuti fa, alle 12:20 UTC
Vento 3 kt da sud-ovest
Temperature 17°C
Umidità 82%
Pressione 1023 hPa
Visibilità: 9000 m
Nuvoloso ad un'altezza di 2000 ft

METAR: LIBR 061220Z 22003KT 9000 BKN020 17/14 Q1023

Ora: 13:55 (12:55 UTC)

Previsione

Il bollettino è stato emesso 1 ora e 8 minuti fa, alle 11:47 UTC
Previsione valida dal 06 alle 12 UTC al 07 alle 12 UTC
Vento 10 kt da sud/sud-est
Visibilità: 7000 m
Nuvoloso ad un'altezza di 1500 ft
Nuvoloso ad un'altezza di 4000 ft
Temporaneamente
dal 06 alle 12 UTC al 06 alle 15 UTC
Visibilità: 3000 m
rovesci di pioggia
Evoluzione graduale
dal 06 alle 21 UTC al 06 alle 24 UTC
Vento 8 kt da ovest

TAF: LIBR 061147Z 0612/0712 15010KT 7000 BKN015 BKN040 TEMPO 0612/0615 3000 SHRA BECMG 0621/0624 28008KT

Osservazioni e previsioni meteorologiche di più di 4000 aeroporti (messaggi METAR e TAF).

Le stazioni disponibili sono rappresentate dai dischi gialli e rossi sulla carta.

Puntare il mouse per vedere il nome della stazione.

Clicca sopra per visualizzare le osservazioni e previsioni meteorologiche.

Per cambiare la mappa : fare clic sui pulsanti verdi con una croce nera per ingrandire, il pulsante verde con un trattino per diminuire, o sulla freccia verde per le mappe adiacenti.


METAR-TAF: